Time;durP1;ratioP1;P1;durP2;ratioP2;P2;SDS_P1;SDS_P2;PMS_P1;PMS_P2;Temp;Humidity;BMP_temperature;BMP_pressure;BME280_temperature;BME280_humidity;BME280_pressure;Samples;Min_cycle;Max_cycle;Signal;HPM_P1;HPM_P2
2022/11/10 00:02:03;;;;;;;13.63;3.33;;;9.50;99.90;;;;;;5018732;28;20050;-65
2022/11/10 00:04:28;;;;;;;;;;;9.50;99.90;;;;;;5014183;28;20405;-65
2022/11/10 00:06:54;;;;;;;7.72;2.13;;;9.50;99.90;;;;;;5016377;28;19928;-64
2022/11/10 00:09:19;;;;;;;;;;;9.50;99.90;;;;;;5014185;28;20080;-64
2022/11/10 00:11:45;;;;;;;14.27;2.95;;;9.50;99.90;;;;;;5013711;28;19921;-63
2022/11/10 00:17:03;;;;;;;11.07;2.42;;;9.50;99.90;;;;;;5014969;28;19924;-64
2022/11/10 00:19:33;;;;;;;9.95;1.90;;;9.50;99.90;;;;;;5000665;28;20556;-64
2022/11/10 00:22:00;;;;;;;17.17;2.97;;;9.60;99.90;;;;;;5010796;28;20038;-63
2022/11/10 00:24:27;;;;;;;17.05;2.78;;;9.60;99.90;;;;;;5013193;28;20455;-65
2022/11/10 00:26:54;;;;;;;14.15;3.67;;;9.50;99.90;;;;;;4998151;28;20798;-64
2022/11/10 00:29:20;;;;;;;13.15;2.88;;;9.50;99.90;;;;;;5011105;28;20092;-63
2022/11/10 00:31:46;;;;;;;12.38;3.17;;;9.50;99.90;;;;;;5012476;28;20048;-63
2022/11/10 00:34:16;;;;;;;13.40;2.97;;;9.60;99.90;;;;;;5023087;28;20033;-66
2022/11/10 00:36:42;;;;;;;17.63;3.15;;;9.60;99.90;;;;;;5042183;28;20059;-66
2022/11/10 00:39:09;;;;;;;9.35;2.85;;;9.50;99.90;;;;;;5039938;28;20512;-64
2022/11/10 00:41:35;;;;;;;9.05;3.00;;;9.50;99.90;;;;;;5044558;28;20121;-65
2022/11/10 00:44:00;;;;;;;;;;;9.60;99.90;;;;;;5023698;28;20517;-66
2022/11/10 00:46:26;;;;;;;10.75;2.30;;;9.60;99.90;;;;;;5027392;28;20019;-62
2022/11/10 00:48:52;;;;;;;;;;;9.60;99.90;;;;;;5023036;28;20190;-61
2022/11/10 00:51:24;;;;;;;13.73;2.78;;;9.60;99.90;;;;;;5028048;28;20011;-64
2022/11/10 00:53:51;;;;;;;7.80;2.13;;;9.50;99.90;;;;;;5041920;28;20067;-64
2022/11/10 00:56:18;;;;;;;7.97;2.42;;;9.60;99.90;;;;;;5028212;28;20835;-64
2022/11/10 00:58:44;;;;;;;9.55;2.53;;;9.60;99.90;;;;;;5025423;28;20199;-64
2022/11/10 01:01:11;;;;;;;17.88;3.00;;;9.60;99.90;;;;;;5025017;28;20038;-63
2022/11/10 01:03:37;;;;;;;9.85;2.55;;;9.60;99.90;;;;;;5026651;28;20146;-64
2022/11/10 01:06:04;;;;;;;;;;;9.60;99.90;;;;;;5024187;28;20165;-64
2022/11/10 01:08:30;;;;;;;10.13;2.92;;;9.60;99.90;;;;;;5026056;28;20552;-64
2022/11/10 01:11:05;;;;;;;;;;;9.60;99.90;;;;;;5027866;28;20053;-64
2022/11/10 01:13:31;;;;;;;10.48;2.53;;;9.60;99.90;;;;;;5025316;28;20369;-63
2022/11/10 01:16:05;;;;;;;15.88;3.17;;;9.60;99.90;;;;;;5027513;28;20057;-63
2022/11/10 01:18:32;;;;;;;17.95;2.58;;;9.60;99.90;;;;;;5025002;28;20042;-63
2022/11/10 01:20:57;;;;;;;9.85;2.85;;;9.50;99.90;;;;;;5026204;28;20044;-64
2022/11/10 01:23:23;;;;;;;;;;;9.50;99.90;;;;;;5026522;28;20399;-64
2022/11/10 01:25:48;;;;;;;16.98;3.20;;;9.60;99.90;;;;;;5020743;28;19932;-64
2022/11/10 01:28:14;;;;;;;;;;;9.60;99.90;;;;;;5023746;28;20074;-64
2022/11/10 01:30:39;;;;;;;14.93;2.80;;;9.60;99.90;;;;;;5021469;28;19921;-63
2022/11/10 01:33:05;;;;;;;;;;;9.60;99.90;;;;;;5028553;28;20508;-64
2022/11/10 01:35:33;;;;;;;14.85;3.22;;;9.60;99.90;;;;;;5028814;28;19917;-64
2022/11/10 01:37:58;;;;;;;12.43;3.78;;;9.50;99.90;;;;;;5032807;28;20037;-64
2022/11/10 01:40:24;;;;;;;;;;;9.50;99.90;;;;;;5011365;28;20042;-64
2022/11/10 01:42:55;;;;;;;10.32;3.00;;;9.50;99.90;;;;;;5025465;28;19947;-65
2022/11/10 01:45:23;;;;;;;11.10;2.60;;;9.40;99.90;;;;;;5022243;28;20092;-65
2022/11/10 01:47:55;;;;;;;7.97;2.80;;;9.40;99.90;;;;;;5029332;28;20041;-65
2022/11/10 01:50:24;;;;;;;13.82;2.90;;;9.40;99.90;;;;;;5025198;28;20531;-65
2022/11/10 01:52:54;;;;;;;11.68;2.78;;;9.40;99.90;;;;;;5018512;28;20151;-65
2022/11/10 01:55:20;;;;;;;13.50;3.10;;;9.40;99.90;;;;;;5024746;28;20033;-66
2022/11/10 01:57:46;;;;;;;8.88;2.58;;;9.40;99.90;;;;;;5023653;28;20041;-66
2022/11/10 02:00:16;;;;;;;;;;;9.40;99.90;;;;;;5018195;28;20105;-65
2022/11/10 02:02:49;;;;;;;10.70;2.13;;;9.40;99.90;;;;;;5027428;28;19967;-63
2022/11/10 02:05:14;;;;;;;10.75;3.70;;;9.40;99.90;;;;;;5015414;28;20050;-63
2022/11/10 02:07:41;;;;;;;;;;;9.40;99.90;;;;;;5015543;28;20055;-64
2022/11/10 02:10:13;;;;;;;16.10;3.00;;;9.40;99.90;;;;;;5013698;28;19924;-64
2022/11/10 02:12:39;;;;;;;9.57;2.90;;;9.40;99.90;;;;;;5009635;28;20794;-64
2022/11/10 02:15:06;;;;;;;;;;;9.40;99.90;;;;;;5014819;28;20072;-64
2022/11/10 02:17:32;;;;;;;13.68;3.38;;;9.40;99.90;;;;;;5005761;28;20463;-64
2022/11/10 02:20:04;;;;;;;;;;;9.40;99.90;;;;;;5008634;28;20069;-65
2022/11/10 02:22:30;;;;;;;11.60;2.90;;;9.40;99.90;;;;;;4997895;28;20003;-64
2022/11/10 02:24:56;;;;;;;9.48;2.85;;;9.50;99.90;;;;;;5012531;28;20049;-65
2022/11/10 02:27:23;;;;;;;10.02;2.83;;;9.50;99.90;;;;;;5014708;28;20049;-66
2022/11/10 02:29:49;;;;;;;;;;;9.50;99.90;;;;;;5008323;28;20069;-65
2022/11/10 02:32:14;;;;;;;18.20;4.20;;;9.50;99.90;;;;;;5017402;28;20016;-66
2022/11/10 02:34:41;;;;;;;;;;;9.50;99.90;;;;;;5003824;28;20482;-65
2022/11/10 02:37:06;;;;;;;13.07;3.00;;;9.50;99.90;;;;;;5005380;28;19980;-66
2022/11/10 02:39:32;;;;;;;;;;;9.40;99.90;;;;;;5004690;28;20473;-65
2022/11/10 02:41:57;;;;;;;16.02;3.83;;;9.50;99.90;;;;;;5005415;28;19917;-65
2022/11/10 02:44:24;;;;;;;;;;;9.50;99.90;;;;;;5003415;28;20537;-66
2022/11/10 02:46:49;;;;;;;14.52;3.13;;;9.50;99.90;;;;;;5004419;28;19925;-65
2022/11/10 02:49:15;;;;;;;;;;;9.50;99.90;;;;;;5002465;28;20122;-65
2022/11/10 02:51:40;;;;;;;9.85;2.75;;;9.40;99.90;;;;;;5004671;28;19924;-66
2022/11/10 02:54:06;;;;;;;;;;;9.40;99.90;;;;;;5004483;28;20038;-65
2022/11/10 02:56:32;;;;;;;9.80;2.60;;;9.40;99.90;;;;;;5004642;28;20004;-65
2022/11/10 02:58:57;;;;;;;15.30;2.55;;;9.40;99.90;;;;;;5004426;28;20425;-66
2022/11/10 03:01:23;;;;;;;;;;;9.40;99.90;;;;;;5028646;28;20524;-66
2022/11/10 03:03:49;;;;;;;13.98;2.85;;;9.40;99.90;;;;;;5024577;28;19944;-65
2022/11/10 03:06:14;;;;;;;;;;;9.30;99.90;;;;;;5020348;28;20079;-64
2022/11/10 03:08:40;;;;;;;12.27;2.78;;;9.40;99.90;;;;;;5023488;28;19917;-64
2022/11/10 03:11:05;;;;;;;;;;;9.30;99.90;;;;;;5024633;28;20311;-64
2022/11/10 03:13:32;;;;;;;15.80;2.30;;;9.30;99.90;;;;;;5023483;28;19927;-64
2022/11/10 03:15:57;;;;;;;17.30;3.67;;;9.30;99.90;;;;;;5029745;28;20061;-64
2022/11/10 03:18:23;;;;;;;;;;;9.30;99.90;;;;;;5023729;28;20041;-65
2022/11/10 03:20:49;;;;;;;11.65;2.20;;;9.30;99.90;;;;;;5025819;28;19982;-65
2022/11/10 03:23:18;;;;;;;;;;;9.40;99.90;;;;;;5025135;28;20034;-63
2022/11/10 03:25:44;;;;;;;12.68;3.50;;;9.40;99.90;;;;;;5025502;28;19931;-64
2022/11/10 03:28:11;;;;;;;8.25;2.50;;;9.30;99.90;;;;;;5022919;28;20065;-65
2022/11/10 03:30:37;;;;;;;11.13;2.95;;;9.30;99.90;;;;;;5019465;28;20045;-65
2022/11/10 03:33:03;;;;;;;13.30;3.10;;;9.40;99.90;;;;;;5021673;28;20044;-66
2022/11/10 03:35:29;;;;;;;;;;;9.40;99.90;;;;;;5025145;28;20363;-65
2022/11/10 03:37:54;;;;;;;14.30;2.88;;;9.30;99.90;;;;;;5023778;28;19929;-66
2022/11/10 03:40:20;;;;;;;;;;;9.40;99.90;;;;;;5024889;28;20041;-64
2022/11/10 03:42:46;;;;;;;13.93;2.67;;;9.30;99.90;;;;;;5024187;28;20393;-64
2022/11/10 03:45:13;;;;;;;11.82;2.90;;;9.30;99.90;;;;;;5023068;28;20045;-62
2022/11/10 03:47:39;;;;;;;20.63;3.10;;;9.30;99.90;;;;;;5023395;28;20520;-64
2022/11/10 03:50:05;;;;;;;;;;;9.30;99.90;;;;;;5023509;28;20037;-66
2022/11/10 03:52:30;;;;;;;12.60;2.60;;;9.30;99.90;;;;;;5024301;28;19928;-65
2022/11/10 03:54:56;;;;;;;;;;;9.30;99.90;;;;;;5037393;28;20057;-65
2022/11/10 03:57:22;;;;;;;9.77;3.17;;;9.30;99.90;;;;;;5027735;28;20100;-63
2022/11/10 03:59:47;;;;;;;;;;;9.30;99.90;;;;;;5026702;28;20116;-63
2022/11/10 04:02:13;;;;;;;11.02;2.40;;;9.30;99.90;;;;;;5028782;28;19921;-63
2022/11/10 04:10:08;;;;;;;17.60;3.60;;;9.30;99.90;;;;;;5017462;28;20450;-63
2022/11/10 04:18:23;;;;;;;10.57;2.92;;;9.30;99.90;;;;;;5004967;28;20042;-63
2022/11/10 04:20:51;;;;;;;13.60;3.40;;;9.30;99.90;;;;;;5019818;28;20111;-66
2022/11/10 04:23:25;;;;;;;16.30;3.45;;;9.30;99.90;;;;;;5011897;28;20120;-65
2022/11/10 04:28:40;;;;;;;14.85;3.83;;;9.30;99.90;;;;;;5014401;28;20037;-65
2022/11/10 04:31:06;;;;;;;;;;;9.40;99.90;;;;;;5013080;28;20133;-65
2022/11/10 04:33:32;;;;;;;16.33;3.35;;;9.40;99.90;;;;;;5024705;28;19924;-65
2022/11/10 04:35:57;;;;;;;11.75;3.67;;;9.40;99.90;;;;;;5026151;28;20041;-65
2022/11/10 04:38:23;;;;;;;;;;;9.40;99.90;;;;;;5017332;28;20045;-65
2022/11/10 04:40:48;;;;;;;9.88;2.60;;;9.40;99.90;;;;;;5027254;28;19917;-65
2022/11/10 04:43:14;;;;;;;;;;;9.40;99.90;;;;;;5016286;28;20034;-65
2022/11/10 04:45:40;;;;;;;23.08;3.88;;;9.40;99.90;;;;;;5026984;28;20335;-66
2022/11/10 04:48:05;;;;;;;;;;;9.40;99.90;;;;;;5025597;28;20703;-65
2022/11/10 04:50:31;;;;;;;15.52;3.67;;;9.40;99.90;;;;;;5026402;28;20011;-66
2022/11/10 04:52:56;;;;;;;;;;;9.40;99.90;;;;;;5017773;28;20133;-65
2022/11/10 04:55:22;;;;;;;18.70;3.42;;;9.40;99.90;;;;;;5026532;28;20600;-65
2022/11/10 04:57:47;;;;;;;;;;;9.40;99.90;;;;;;5022101;28;20061;-65
2022/11/10 05:00:14;;;;;;;18.45;3.80;;;9.40;99.90;;;;;;5023369;28;19917;-65
2022/11/10 05:02:40;;;;;;;11.25;3.30;;;9.40;99.90;;;;;;5017687;28;20555;-65
2022/11/10 05:05:05;;;;;;;;;;;9.40;99.90;;;;;;5009516;28;20034;-64
2022/11/10 05:07:32;;;;;;;18.23;4.47;;;9.40;99.90;;;;;;5021342;28;19980;-64
2022/11/10 05:09:57;;;;;;;14.90;3.50;;;9.30;99.90;;;;;;4990776;28;20061;-64
2022/11/10 05:12:23;;;;;;;;;;;9.30;99.90;;;;;;5023018;28;20490;-64
2022/11/10 05:14:49;;;;;;;19.55;4.05;;;9.20;99.90;;;;;;5005655;28;19924;-64
2022/11/10 05:17:14;;;;;;;;;;;9.20;99.90;;;;;;5008259;28;20476;-65
2022/11/10 05:19:40;;;;;;;21.77;3.75;;;9.20;99.90;;;;;;5009349;28;20008;-64
2022/11/10 05:22:08;;;;;;;;;;;9.30;99.90;;;;;;5008478;28;20084;-64
2022/11/10 05:24:34;;;;;;;14.73;3.13;;;9.20;99.90;;;;;;5004485;28;19987;-64
2022/11/10 05:27:00;;;;;;;;;;;9.20;99.90;;;;;;4989936;28;20679;-64
2022/11/10 05:29:25;;;;;;;13.90;3.00;;;9.20;99.90;;;;;;5016693;28;19922;-63
2022/11/10 05:31:51;;;;;;;;;;;9.20;99.90;;;;;;5005891;28;20624;-64
2022/11/10 05:34:17;;;;;;;17.17;3.45;;;9.30;99.90;;;;;;5007859;28;19971;-63
2022/11/10 05:36:42;;;;;;;;;;;9.20;99.90;;;;;;5007709;28;20046;-63
2022/11/10 05:39:08;;;;;;;15.63;4.65;;;9.20;99.90;;;;;;5001111;28;20016;-62
2022/11/10 05:41:34;;;;;;;;;;;9.20;99.90;;;;;;5007800;28;20050;-63
2022/11/10 05:43:59;;;;;;;16.60;3.83;;;9.20;99.90;;;;;;5005212;28;19917;-63
2022/11/10 05:46:25;;;;;;;;;;;9.10;99.90;;;;;;5022034;28;20068;-64
2022/11/10 05:48:51;;;;;;;16.85;4.85;;;9.10;99.90;;;;;;5004022;28;20103;-65
2022/11/10 05:51:16;;;;;;;;;;;9.10;99.90;;;;;;5002297;28;20101;-62
2022/11/10 05:53:42;;;;;;;19.02;4.22;;;9.10;99.90;;;;;;4996857;28;20004;-63
2022/11/10 05:56:08;;;;;;;;;;;9.10;99.90;;;;;;5004279;28;20050;-63
2022/11/10 05:58:33;;;;;;;15.10;4.53;;;9.10;99.90;;;;;;5001822;28;19918;-63
2022/11/10 06:00:59;;;;;;;;;;;9.10;99.90;;;;;;5012729;28;20044;-63
2022/11/10 06:03:25;;;;;;;19.65;4.15;;;9.10;99.90;;;;;;5002028;28;20331;-63
2022/11/10 06:05:50;;;;;;;;;;;9.10;99.90;;;;;;5005270;28;20367;-63
2022/11/10 06:08:16;;;;;;;18.10;4.13;;;9.10;99.90;;;;;;5017754;28;20428;-63
2022/11/10 06:10:43;;;;;;;15.00;4.30;;;9.10;99.90;;;;;;5004423;28;20068;-63
2022/11/10 06:13:09;;;;;;;21.23;4.55;;;9.20;99.90;;;;;;5001781;28;20694;-63
2022/11/10 06:15:35;;;;;;;;;;;9.10;99.90;;;;;;5000821;28;20151;-63
2022/11/10 06:18:01;;;;;;;17.63;4.22;;;9.10;99.90;;;;;;5000915;28;19928;-63
2022/11/10 06:20:26;;;;;;;;;;;9.10;99.90;;;;;;5002693;28;20081;-63
2022/11/10 06:23:05;;;;;;;12.75;4.35;;;9.10;99.90;;;;;;4997467;28;19988;-62
2022/11/10 06:25:33;;;;;;;15.63;4.57;;;9.20;99.90;;;;;;4997650;28;20034;-64
2022/11/10 06:28:00;;;;;;;11.80;3.47;;;9.10;99.90;;;;;;5001364;28;20049;-63
2022/11/10 06:30:27;;;;;;;11.20;3.22;;;9.10;99.90;;;;;;5003421;28;20030;-62
2022/11/10 06:32:53;;;;;;;20.83;3.90;;;9.10;99.90;;;;;;5001563;28;20042;-63
2022/11/10 06:35:20;;;;;;;13.38;3.85;;;9.10;99.90;;;;;;5004452;28;20045;-63
2022/11/10 06:38:00;;;;;;;16.45;3.63;;;9.10;99.90;;;;;;5002383;28;20073;-63
2022/11/10 06:40:25;;;;;;;15.20;3.70;;;9.00;99.90;;;;;;5004964;28;20053;-63
2022/11/10 06:42:51;;;;;;;;;;;9.10;99.90;;;;;;4998720;28;20429;-63
2022/11/10 06:45:17;;;;;;;15.77;3.58;;;9.00;99.90;;;;;;4999840;28;20685;-62
2022/11/10 06:47:43;;;;;;;;;;;9.10;99.90;;;;;;4986801;28;20437;-63
2022/11/10 06:50:09;;;;;;;13.32;3.70;;;9.10;99.90;;;;;;5005364;28;19917;-63
2022/11/10 06:52:34;;;;;;;;;;;9.10;99.90;;;;;;5016021;28;20046;-63
2022/11/10 06:55:00;;;;;;;16.40;3.40;;;9.10;99.90;;;;;;4999316;28;20016;-64
2022/11/10 06:57:26;;;;;;;10.73;3.25;;;9.10;99.90;;;;;;5004042;28;20092;-63
2022/11/10 06:59:52;;;;;;;;;;;9.20;99.90;;;;;;4995020;28;20050;-63
2022/11/10 07:02:18;;;;;;;10.45;2.53;;;9.10;99.90;;;;;;5016158;28;20667;-63
2022/11/10 07:04:43;;;;;;;;;;;9.10;99.90;;;;;;5014264;28;20038;-63
2022/11/10 07:07:10;;;;;;;12.30;3.33;;;9.10;99.90;;;;;;5015563;28;20062;-64
2022/11/10 07:09:37;;;;;;;16.20;3.70;;;9.20;99.90;;;;;;5021509;28;20042;-63
2022/11/10 07:12:04;;;;;;;23.33;4.78;;;9.10;99.90;;;;;;5024347;28;20059;-62
2022/11/10 07:14:30;;;;;;;15.38;4.32;;;9.20;99.90;;;;;;5031769;28;20408;-63
2022/11/10 07:16:56;;;;;;;18.00;4.10;;;9.20;99.90;;;;;;5034369;28;20096;-63
2022/11/10 07:19:22;;;;;;;;;;;9.20;99.90;;;;;;5019231;28;20033;-63
2022/11/10 07:21:47;;;;;;;17.60;3.63;;;9.10;99.90;;;;;;5036650;28;19917;-62
2022/11/10 07:24:13;;;;;;;;;;;9.10;99.90;;;;;;5016867;28;20485;-62
2022/11/10 07:26:39;;;;;;;11.80;4.07;;;9.10;99.90;;;;;;5014666;28;19921;-62
2022/11/10 07:29:04;;;;;;;;;;;9.10;99.90;;;;;;5020248;28;20048;-62
2022/11/10 07:31:30;;;;;;;17.70;4.35;;;9.20;99.90;;;;;;5042433;28;19917;-62
2022/11/10 07:33:55;;;;;;;;;;;9.30;99.90;;;;;;5027486;28;20037;-64
2022/11/10 07:36:21;;;;;;;19.08;4.40;;;9.30;99.90;;;;;;5019258;28;19960;-66
2022/11/10 07:38:47;;;;;;;;;;;9.40;99.90;;;;;;5023192;28;20125;-64
2022/11/10 07:41:12;;;;;;;13.50;3.38;;;9.50;99.90;;;;;;5020970;28;19925;-63
2022/11/10 07:43:38;;;;;;;;;;;9.60;99.90;;;;;;5021811;28;20463;-62
2022/11/10 07:46:04;;;;;;;6.55;2.80;;;9.70;99.90;;;;;;5026442;28;20399;-64
2022/11/10 07:48:29;;;;;;;;;;;9.80;99.90;;;;;;5026428;28;20044;-64
2022/11/10 07:50:55;;;;;;;15.98;3.25;;;9.90;99.90;;;;;;5027424;28;20304;-64
2022/11/10 07:53:20;;;;;;;;;;;10.00;99.90;;;;;;5027141;28;20052;-64
2022/11/10 07:55:46;;;;;;;17.58;5.00;;;10.00;99.90;;;;;;5027009;28;20059;-64
2022/11/10 07:58:13;;;;;;;;;;;10.00;99.90;;;;;;5025235;28;20045;-64
2022/11/10 08:00:40;;;;;;;17.40;4.38;;;10.00;99.90;;;;;;5022987;28;20374;-64
2022/11/10 08:03:09;;;;;;;19.55;5.00;;;10.00;99.90;;;;;;5006974;28;20161;-64
2022/11/10 08:05:35;;;;;;;16.17;4.63;;;9.90;99.90;;;;;;5006412;28;20190;-64
2022/11/10 08:08:01;;;;;;;;;;;9.80;99.90;;;;;;5004081;28;20041;-64
2022/11/10 08:10:28;;;;;;;15.35;3.60;;;9.80;99.90;;;;;;5007437;28;19917;-63
2022/11/10 08:13:00;;;;;;;19.30;4.43;;;9.70;99.90;;;;;;5003031;28;20042;-63
2022/11/10 08:15:28;;;;;;;17.50;4.60;;;9.70;99.90;;;;;;5020528;28;20548;-64
2022/11/10 08:18:19;;;;;;;18.17;4.95;;;9.70;99.90;;;;;;5001465;28;20046;-63
2022/11/10 08:20:45;;;;;;;23.02;5.53;;;9.80;99.90;;;;;;5003173;28;20046;-63
2022/11/10 08:23:11;;;;;;;20.08;5.45;;;10.00;99.90;;;;;;5000243;28;20038;-64
2022/11/10 08:25:37;;;;;;;;;;;10.00;99.90;;;;;;5007709;28;20040;-65
2022/11/10 08:28:14;;;;;;;23.33;4.65;;;10.10;99.90;;;;;;5000668;28;19957;-67
2022/11/10 08:30:42;;;;;;;14.18;3.47;;;10.20;99.90;;;;;;5031955;28;20034;-65
2022/11/10 08:33:09;;;;;;;11.00;3.30;;;10.20;99.90;;;;;;5001459;28;20046;-65
2022/11/10 08:35:38;;;;;;;20.13;4.13;;;10.30;99.90;;;;;;5007116;28;20042;-65
2022/11/10 08:38:12;;;;;;;21.38;4.13;;;10.20;99.90;;;;;;5003078;28;20561;-65
2022/11/10 08:40:39;;;;;;;12.73;3.72;;;10.20;99.90;;;;;;5008347;28;20576;-64
2022/11/10 08:43:08;;;;;;;22.73;5.68;;;10.20;99.90;;;;;;5002751;28;20073;-64
2022/11/10 08:45:39;;;;;;;20.77;4.22;;;10.30;99.90;;;;;;4998241;28;20088;-64
2022/11/10 08:48:12;;;;;;;17.17;4.45;;;10.30;99.90;;;;;;4996870;28;20042;-65
2022/11/10 08:50:39;;;;;;;15.60;4.82;;;10.30;99.90;;;;;;5007266;28;20103;-64
2022/11/10 08:53:11;;;;;;;13.98;4.60;;;10.30;99.90;;;;;;5006046;28;20100;-65
2022/11/10 08:55:37;;;;;;;21.85;4.63;;;10.50;99.90;;;;;;5007400;28;20069;-64
2022/11/10 08:58:04;;;;;;;;;;;10.60;99.90;;;;;;5002392;28;20046;-63
2022/11/10 09:00:31;;;;;;;20.40;4.03;;;10.70;99.90;;;;;;5006812;28;19925;-65
2022/11/10 09:03:03;;;;;;;18.85;4.35;;;10.80;99.90;;;;;;5002223;28;20050;-64
2022/11/10 09:05:28;;;;;;;15.70;4.35;;;10.80;99.90;;;;;;5002010;28;20049;-64
2022/11/10 09:07:54;;;;;;;;;;;10.80;99.90;;;;;;5005410;28;20069;-65
2022/11/10 09:10:20;;;;;;;13.60;4.07;;;11.00;99.90;;;;;;5007285;28;20472;-65
2022/11/10 09:12:45;;;;;;;;;;;11.10;99.90;;;;;;5005205;28;20050;-65
2022/11/10 09:15:12;;;;;;;19.42;4.75;;;11.20;99.90;;;;;;5004099;28;19918;-65
2022/11/10 09:17:38;;;;;;;19.85;4.30;;;11.20;99.90;;;;;;5004799;28;20046;-65
2022/11/10 09:20:06;;;;;;;16.17;4.70;;;11.20;99.90;;;;;;5004756;28;20034;-65
2022/11/10 09:22:34;;;;;;;16.40;4.20;;;11.20;99.90;;;;;;5006278;28;20537;-65
2022/11/10 09:25:00;;;;;;;17.65;4.20;;;11.30;99.90;;;;;;5003509;28;20041;-64
2022/11/10 09:27:25;;;;;;;;;;;11.30;99.90;;;;;;5021361;28;20505;-63
2022/11/10 09:29:51;;;;;;;15.27;3.80;;;11.40;99.90;;;;;;5018252;28;19923;-65
2022/11/10 09:32:17;;;;;;;;;;;11.40;99.90;;;;;;5004541;28;20045;-63
2022/11/10 09:34:42;;;;;;;17.23;3.80;;;11.50;99.90;;;;;;5002561;28;20034;-63
2022/11/10 09:37:08;;;;;;;;;;;11.40;99.90;;;;;;5003770;28;20042;-64
2022/11/10 09:39:34;;;;;;;21.67;4.07;;;11.50;99.90;;;;;;5009385;28;19917;-64
2022/11/10 09:41:59;;;;;;;;;;;11.60;99.90;;;;;;5005823;28;20040;-63
2022/11/10 09:44:50;;;;;;;12.80;3.22;;;11.60;99.90;;;;;;5002775;28;19925;-64
2022/11/10 09:47:22;;;;;;;16.85;3.75;;;11.70;99.90;;;;;;5004509;28;20045;-63
2022/11/10 09:49:52;;;;;;;18.25;4.60;;;11.70;99.90;;;;;;5001900;28;20121;-63
2022/11/10 09:52:21;;;;;;;14.35;4.13;;;11.70;99.90;;;;;;5003735;28;20128;-63
2022/11/10 09:54:55;;;;;;;14.93;4.00;;;11.90;99.90;;;;;;5002389;28;20042;-63
2022/11/10 09:57:24;;;;;;;14.10;4.70;;;11.90;99.90;;;;;;5005360;28;20049;-64
2022/11/10 09:59:51;;;;;;;12.65;3.90;;;11.90;99.90;;;;;;4999477;28;20033;-65
2022/11/10 10:02:39;;;;;;;9.75;3.42;;;11.90;99.90;;;;;;5020540;28;20409;-65
2022/11/10 10:05:33;;;;;;;15.60;3.78;;;11.80;99.90;;;;;;5019769;28;20128;-64
2022/11/10 10:08:09;;;;;;;16.98;4.07;;;11.80;99.90;;;;;;5020459;28;20108;-64
2022/11/10 10:10:50;;;;;;;11.25;4.32;;;12.00;99.90;;;;;;5019906;28;20106;-64
2022/11/10 10:13:44;;;;;;;16.17;3.92;;;12.10;99.90;;;;;;5022735;28;20442;-64
2022/11/10 10:16:31;;;;;;;19.45;3.80;;;12.20;99.90;;;;;;5023314;28;20041;-65
2022/11/10 10:19:10;;;;;;;13.80;3.78;;;12.20;99.90;;;;;;5015590;28;20045;-65
2022/11/10 10:22:08;;;;;;;12.80;3.88;;;12.10;99.90;;;;;;5011483;28;20508;-64
2022/11/10 10:24:37;;;;;;;14.35;3.33;;;12.10;99.90;;;;;;5024931;28;20103;-64
2022/11/10 10:27:22;;;;;;;10.38;3.42;;;12.00;99.90;;;;;;5014210;28;20129;-63
2022/11/10 10:29:48;;;;;;;17.15;3.30;;;11.90;99.90;;;;;;5021950;28;20041;-64
2022/11/10 10:32:15;;;;;;;13.52;3.45;;;11.90;99.90;;;;;;5002317;28;20094;-64
2022/11/10 10:34:43;;;;;;;13.77;3.00;;;11.90;99.90;;;;;;5004745;28;20041;-64
2022/11/10 10:37:31;;;;;;;10.48;2.95;;;11.90;99.90;;;;;;5005263;28;20081;-64
2022/11/10 10:39:56;;;;;;;13.63;2.85;;;12.00;99.90;;;;;;4994354;28;20046;-65
2022/11/10 10:42:29;;;;;;;;;;;12.30;99.90;;;;;;5013279;28;20050;-65
2022/11/10 10:45:15;;;;;;;10.45;3.08;;;12.40;99.90;;;;;;5002084;28;20349;-64
2022/11/10 10:47:41;;;;;;;20.23;3.17;;;12.40;99.90;;;;;;5000400;28;20502;-64
2022/11/10 10:50:23;;;;;;;13.73;2.83;;;12.20;99.90;;;;;;5000195;28;20144;-65
2022/11/10 10:53:08;;;;;;;20.33;2.88;;;12.30;99.90;;;;;;4998138;28;20042;-65
2022/11/10 10:55:35;;;;;;;14.60;3.05;;;12.20;99.90;;;;;;4999226;28;20049;-63
2022/11/10 10:58:17;;;;;;;10.82;2.42;;;12.30;99.90;;;;;;4997276;28;20038;-64
2022/11/10 11:00:44;;;;;;;18.15;3.72;;;12.40;99.90;;;;;;4998870;28;20044;-65
2022/11/10 11:03:35;;;;;;;11.80;2.63;;;12.50;99.90;;;;;;5000691;28;20042;-64
2022/11/10 11:06:06;;;;;;;13.30;2.75;;;12.50;99.90;;;;;;5004529;28;20034;-63
2022/11/10 11:08:32;;;;;;;16.33;3.13;;;12.60;99.90;;;;;;5003939;28;20049;-64
2022/11/10 11:11:05;;;;;;;;;;;12.60;99.90;;;;;;5007208;28;20094;-64
2022/11/10 11:13:31;;;;;;;19.60;4.28;;;12.60;99.90;;;;;;5002490;28;19968;-64
2022/11/10 11:15:57;;;;;;;;;;;12.60;99.90;;;;;;5006406;28;20050;-64
2022/11/10 11:18:24;;;;;;;12.73;2.58;;;12.60;99.90;;;;;;5009072;28;20008;-64
2022/11/10 11:21:01;;;;;;;13.52;3.30;;;12.60;99.90;;;;;;5006233;28;20553;-65
2022/11/10 11:23:55;;;;;;;12.05;2.45;;;12.60;99.90;;;;;;5000849;28;20045;-64
2022/11/10 11:26:43;;;;;;;12.50;2.70;;;12.50;99.90;;;;;;5004348;28;20045;-64
2022/11/10 11:29:41;;;;;;;14.45;3.22;;;12.30;99.90;;;;;;5002637;28;20732;-64
2022/11/10 11:32:42;;;;;;;15.27;2.47;;;12.30;99.90;;;;;;4987108;28;20034;-65
2022/11/10 11:35:30;;;;;;;12.52;2.75;;;12.30;99.90;;;;;;4902615;29;20044;-64
2022/11/10 11:38:09;;;;;;;12.30;2.42;;;12.30;99.90;;;;;;4995275;28;20088;-63
2022/11/10 11:40:51;;;;;;;14.98;2.83;;;12.40;99.90;;;;;;4999745;28;20175;-64
2022/11/10 11:43:26;;;;;;;15.05;2.30;;;12.50;99.90;;;;;;5000357;28;20046;-64
2022/11/10 11:45:55;;;;;;;14.60;3.03;;;12.50;99.90;;;;;;5004801;28;20045;-64
2022/11/10 11:48:29;;;;;;;16.77;3.70;;;12.50;99.90;;;;;;4999285;28;20061;-63
2022/11/10 11:51:04;;;;;;;17.75;2.97;;;12.50;99.90;;;;;;5005317;28;20042;-64
2022/11/10 11:53:57;;;;;;;15.82;2.80;;;12.50;99.90;;;;;;4997538;28;20037;-64
2022/11/10 11:56:31;;;;;;;15.65;2.67;;;12.50;99.90;;;;;;5004132;28;20100;-64
2022/11/10 11:59:35;;;;;;;20.70;3.53;;;12.50;99.90;;;;;;5000471;28;20053;-64
2022/11/10 12:02:17;;;;;;;11.70;2.53;;;12.50;99.90;;;;;;5000972;28;20092;-64
2022/11/10 12:05:01;;;;;;;12.02;2.13;;;12.50;99.90;;;;;;5001744;28;20099;-64
2022/11/10 12:07:45;;;;;;;18.08;2.35;;;12.50;99.90;;;;;;4994870;28;20046;-64
2022/11/10 12:10:21;;;;;;;8.85;1.95;;;12.50;99.90;;;;;;5003508;28;20070;-65
2022/11/10 12:13:07;;;;;;;14.15;2.78;;;12.50;99.90;;;;;;5002310;28;20049;-64
2022/11/10 12:15:52;;;;;;;19.95;1.88;;;12.50;99.90;;;;;;4999870;28;20732;-66
2022/11/10 12:18:31;;;;;;;13.63;2.17;;;12.60;99.90;;;;;;5014538;28;20073;-64
2022/11/10 12:21:11;;;;;;;19.02;2.65;;;12.50;99.90;;;;;;5008922;28;20037;-65
2022/11/10 12:23:58;;;;;;;10.30;1.80;;;12.50;99.90;;;;;;4999162;28;20121;-65
2022/11/10 12:26:46;;;;;;;16.60;2.20;;;12.50;99.90;;;;;;5007589;28;20046;-65
2022/11/10 12:29:36;;;;;;;15.68;2.33;;;12.50;99.90;;;;;;5002989;28;20096;-65
2022/11/10 12:32:26;;;;;;;13.23;1.70;;;12.40;99.90;;;;;;5007199;28;20159;-65
2022/11/10 12:35:00;;;;;;;10.38;1.77;;;12.50;99.90;;;;;;5003972;28;20129;-65
2022/11/10 12:38:10;;;;;;;9.73;1.70;;;12.40;99.90;;;;;;4996863;28;20099;-65
2022/11/10 12:40:41;;;;;;;11.93;2.22;;;12.40;99.90;;;;;;4975628;28;20497;-64
2022/11/10 12:43:35;;;;;;;13.30;1.85;;;12.30;99.90;;;;;;5018631;28;20125;-64
2022/11/10 12:46:06;;;;;;;12.85;1.90;;;12.30;99.90;;;;;;5007113;28;20137;-66
2022/11/10 12:49:04;;;;;;;11.73;2.17;;;12.20;99.90;;;;;;5005412;28;20053;-65
2022/11/10 12:51:39;;;;;;;8.80;2.40;;;12.20;99.90;;;;;;5008400;28;20304;-65
2022/11/10 12:54:09;;;;;;;16.77;2.85;;;12.10;99.90;;;;;;5022566;28;20077;-65
2022/11/10 12:57:12;;;;;;;12.07;2.08;;;12.10;99.90;;;;;;4993727;28;20129;-65
2022/11/10 12:59:41;;;;;;;9.13;2.10;;;12.10;99.90;;;;;;4998750;28;20062;-66
2022/11/10 13:02:45;;;;;;;12.73;2.25;;;12.20;99.90;;;;;;5006420;28;20509;-65
2022/11/10 13:05:29;;;;;;;12.00;1.73;;;12.20;99.90;;;;;;5004517;28;20137;-65
2022/11/10 13:08:15;;;;;;;10.02;2.30;;;12.10;99.90;;;;;;5005846;28;20049;-66
2022/11/10 13:11:14;;;;;;;14.32;1.90;;;12.10;99.90;;;;;;5016792;28;20041;-65
2022/11/10 13:13:46;;;;;;;17.20;2.33;;;12.10;99.90;;;;;;5001224;28;20521;-65
2022/11/10 13:16:43;;;;;;;9.60;1.80;;;12.10;99.90;;;;;;5012220;28;20100;-64
2022/11/10 13:19:37;;;;;;;10.60;2.25;;;12.10;99.90;;;;;;5002793;28;20649;-64
2022/11/10 13:22:11;;;;;;;9.77;1.90;;;12.10;99.90;;;;;;4988484;28;20506;-65
2022/11/10 13:24:38;;;;;;;15.88;2.33;;;12.10;99.90;;;;;;5004497;28;20054;-65
2022/11/10 13:27:29;;;;;;;10.50;1.55;;;12.10;99.90;;;;;;5006870;28;20042;-65
2022/11/10 13:29:56;;;;;;;14.02;1.80;;;12.00;99.90;;;;;;5004045;28;20125;-66
2022/11/10 13:32:24;;;;;;;11.57;2.00;;;12.00;99.90;;;;;;5004629;28;20056;-64
2022/11/10 13:34:50;;;;;;;8.93;1.85;;;12.00;99.90;;;;;;5003857;28;20042;-65
2022/11/10 13:37:34;;;;;;;;;;;12.00;99.90;;;;;;5006465;28;20099;-65
2022/11/10 13:40:24;;;;;;;9.18;1.50;;;11.90;99.90;;;;;;5007513;28;19922;-65